Time;durP1;ratioP1;P1;durP2;ratioP2;P2;SDS_P1;SDS_P2;PMS_P1;PMS_P2;Temp;Humidity;BMP_temperature;BMP_pressure;BME280_temperature;BME280_humidity;BME280_pressure;Samples;Min_cycle;Max_cycle;Signal;HPM_P1;HPM_P2
2022/09/05 00:00:48;;;;;;;5.25;3.00;;;;;;;17.33;74.39;96031.72;5030728;28;20388;-83
2022/09/05 00:03:45;;;;;;;4.25;2.80;;;;;;;17.41;73.94;96039.69;5027897;28;20056;-83
2022/09/05 00:06:14;;;;;;;5.15;3.03;;;;;;;17.37;74.37;96033.81;5039448;28;20618;-83
2022/09/05 00:09:03;;;;;;;5.03;3.20;;;;;;;17.33;74.54;96040.69;5027502;28;20051;-84
2022/09/05 00:11:42;;;;;;;3.90;2.90;;;;;;;17.34;74.13;96041.53;5029602;28;20041;-83
2022/09/05 00:14:07;;;;;;;4.50;3.08;;;;;;;17.39;74.14;96039.03;5030033;28;20021;-83
2022/09/05 00:16:42;;;;;;;6.47;3.30;;;;;;;17.41;74.17;96037.78;5048406;28;20025;-83
2022/09/05 00:19:22;;;;;;;3.95;2.67;;;;;;;17.54;73.27;96044.25;5048557;28;20075;-84
2022/09/05 00:22:03;;;;;;;4.90;2.75;;;;;;;17.61;73.36;96028.00;5046351;28;20384;-83
2022/09/05 00:24:41;;;;;;;5.72;3.65;;;;;;;17.70;72.63;96024.03;5045579;28;20445;-83
2022/09/05 00:27:26;;;;;;;4.35;3.22;;;;;;;17.70;72.56;96021.34;5043272;28;20037;-84
2022/09/05 00:30:01;;;;;;;4.32;3.63;;;;;;;17.77;72.69;96034.91;5044550;28;20071;-82
2022/09/05 00:32:32;;;;;;;5.25;3.92;;;;;;;17.84;72.79;96030.34;5044919;28;20029;-83
2022/09/05 00:35:23;;;;;;;7.38;4.80;;;;;;;17.86;72.23;96033.66;5045169;28;20021;-83
2022/09/05 00:37:48;;;;;;;6.00;4.90;;;;;;;17.91;71.88;96033.88;5045447;28;20032;-83
2022/09/05 00:40:24;;;;;;;7.65;5.80;;;;;;;17.97;72.09;96032.22;5026628;28;20399;-84
2022/09/05 00:42:55;;;;;;;5.93;5.32;;;;;;;18.03;71.83;96042.22;5043893;28;20036;-84
2022/09/05 00:45:26;;;;;;;6.78;5.88;;;;;;;18.13;71.57;96039.13;5043276;28;20029;-83
2022/09/05 00:47:56;;;;;;;6.47;5.43;;;;;;;18.18;70.96;96045.78;5027236;28;20095;-82
2022/09/05 00:50:28;;;;;;;6.25;5.65;;;;;;;18.34;71.05;96044.50;5044776;28;20587;-82
2022/09/05 00:53:05;;;;;;;6.95;5.63;;;;;;;18.38;70.88;96037.59;5027712;28;20025;-83
2022/09/05 00:56:22;;;;;;;6.35;5.72;;;;;;;18.38;70.61;96037.59;5028966;28;20033;-83
2022/09/05 00:59:05;;;;;;;6.53;5.53;;;;;;;18.37;70.58;96035.94;5043647;28;20055;-82
2022/09/05 01:01:51;;;;;;;6.72;5.80;;;;;;;18.38;71.24;96041.16;5029375;28;20519;-82
2022/09/05 01:04:28;;;;;;;7.40;5.95;;;;;;;18.40;70.33;96035.53;5028547;28;20477;-83
2022/09/05 01:07:27;;;;;;;8.40;6.43;;;;;;;18.37;70.22;96042.22;5044930;28;20024;-83
2022/09/05 01:10:41;;;;;;;10.30;6.97;;;;;;;18.34;69.83;96042.66;5037629;28;20104;-81
2022/09/05 01:13:09;;;;;;;;;;;;;;;18.38;68.84;96040.31;5063968;28;20037;-82
2022/09/05 01:15:50;;;;;;;9.43;7.22;;;;;;;18.22;69.98;96037.00;5064151;28;19913;-84
2022/09/05 01:18:23;;;;;;;8.65;7.53;;;;;;;18.30;69.65;96044.09;5063242;28;20017;-83
2022/09/05 01:21:10;;;;;;;9.88;7.47;;;;;;;18.31;69.06;96036.78;5063419;28;20143;-83
2022/09/05 01:24:00;;;;;;;8.45;7.30;;;;;;;18.30;69.20;96040.56;5047682;28;20049;-83
2022/09/05 01:26:41;;;;;;;7.95;7.18;;;;;;;18.23;69.61;96041.38;5067059;28;20107;-84
2022/09/05 01:29:12;;;;;;;8.65;7.75;;;;;;;18.18;68.68;96035.78;5061322;28;20025;-83
2022/09/05 01:32:00;;;;;;;8.25;7.30;;;;;;;18.11;68.95;96026.75;5047533;28;20456;-83
2022/09/05 01:34:43;;;;;;;8.60;7.68;;;;;;;18.06;68.18;96030.09;5047687;28;20025;-84
2022/09/05 01:37:17;;;;;;;8.68;7.63;;;;;;;17.98;68.96;96027.59;5046909;28;20025;-84
2022/09/05 01:39:49;;;;;;;8.93;7.22;;;;;;;18.00;68.98;96033.66;5046493;28;20115;-86
2022/09/05 01:42:35;;;;;;;8.05;7.30;;;;;;;18.09;68.56;96029.69;5048460;28;20021;-83
2022/09/05 01:45:15;;;;;;;9.15;7.30;;;;;;;18.03;68.93;96027.81;5046334;28;20033;-83
2022/09/05 01:47:59;;;;;;;8.02;7.22;;;;;;;18.02;68.49;96026.16;5031436;28;20025;-83
2022/09/05 01:50:33;;;;;;;9.30;7.35;;;;;;;17.97;68.17;96015.94;5046898;28;20088;-84
2022/09/05 01:53:37;;;;;;;10.10;7.22;;;;;;;18.02;67.93;96029.69;5046422;28;20542;-84
2022/09/05 01:56:11;;;;;;;8.82;7.65;;;;;;;17.97;69.05;96026.78;5048874;28;20040;-84
2022/09/05 01:58:47;;;;;;;9.07;7.03;;;;;;;17.95;69.30;96033.44;5048177;28;20089;-83
2022/09/05 02:02:10;;;;;;;7.78;6.82;;;;;;;17.95;67.63;96028.03;5048523;28;20058;-84
2022/09/05 02:04:53;;;;;;;10.02;6.65;;;;;;;17.96;68.29;96038.66;5045605;28;20029;-83
2022/09/05 02:07:34;;;;;;;7.10;6.40;;;;;;;17.89;67.88;96035.13;5044916;28;20040;-84
2022/09/05 02:10:37;;;;;;;8.38;5.90;;;;;;;17.84;68.39;96034.91;5046991;28;20045;-83
2022/09/05 02:13:27;;;;;;;8.52;6.80;;;;;;;17.82;69.23;96040.56;5048388;28;20059;-83
2022/09/05 02:16:07;;;;;;;7.32;6.57;;;;;;;17.95;68.48;96044.31;5031499;28;20033;-83
2022/09/05 02:19:02;;;;;;;6.90;6.20;;;;;;;18.03;68.04;96038.66;5046353;28;20500;-83
2022/09/05 02:21:40;;;;;;;7.25;5.80;;;;;;;18.03;67.80;96036.81;5047575;28;20403;-83
2022/09/05 02:24:14;;;;;;;6.65;5.90;;;;;;;18.07;67.47;96047.22;5029164;28;20033;-83
2022/09/05 02:26:58;;;;;;;7.45;5.30;;;;;;;18.07;67.70;96036.38;5047859;28;20024;-83
2022/09/05 02:29:38;;;;;;;9.50;5.80;;;;;;;18.05;67.72;96050.16;5046215;28;20488;-83
2022/09/05 02:32:46;;;;;;;8.50;5.78;;;;;;;18.04;68.13;96043.03;5031115;28;20036;-84
2022/09/05 02:35:23;;;;;;;6.57;5.80;;;;;;;18.10;67.84;96035.97;5046422;28;20056;-84
2022/09/05 02:38:08;;;;;;;6.25;5.07;;;;;;;18.03;68.15;96041.38;5029088;28;20029;-83
2022/09/05 02:40:36;;;;;;;12.57;5.40;;;;;;;18.11;67.55;96043.03;5013077;28;20585;-84
2022/09/05 02:43:23;;;;;;;6.88;5.53;;;;;;;18.15;67.29;96045.16;5046653;28;20415;-83
2022/09/05 02:46:05;;;;;;;7.47;5.35;;;;;;;18.11;67.48;96049.31;5046249;28;20172;-83
2022/09/05 02:48:49;;;;;;;6.50;5.05;;;;;;;18.13;67.33;96047.25;5046396;28;20029;-82
2022/09/05 02:51:20;;;;;;;6.53;5.07;;;;;;;18.15;67.67;96049.78;5046311;28;20173;-84
2022/09/05 02:53:57;;;;;;;7.53;5.07;;;;;;;18.27;67.01;96056.22;5029102;28;20469;-85
2022/09/05 02:56:45;;;;;;;7.30;5.15;;;;;;;18.14;67.38;96048.09;5030112;28;20021;-84
2022/09/05 02:59:24;;;;;;;6.68;5.10;;;;;;;18.13;67.64;96052.69;5046427;28;20460;-84
2022/09/05 03:01:54;;;;;;;6.03;5.13;;;;;;;18.25;66.62;96057.50;5030675;28;20033;-83
2022/09/05 03:04:23;;;;;;;6.85;4.88;;;;;;;18.19;67.75;96061.03;5045500;28;20056;-83
2022/09/05 03:06:56;;;;;;;5.88;4.72;;;;;;;18.14;66.64;96065.22;5046117;28;20024;-83
2022/09/05 03:09:33;;;;;;;4.90;4.35;;;;;;;18.15;66.17;96066.88;5045375;28;20029;-83
2022/09/05 03:12:14;;;;;;;6.15;4.70;;;;;;;18.13;66.10;96063.56;5045698;28;20025;-83
2022/09/05 03:15:16;;;;;;;6.00;4.47;;;;;;;18.10;65.81;96065.81;5047011;28;20031;-83
2022/09/05 03:18:00;;;;;;;7.45;4.88;;;;;;;18.10;65.56;96058.50;5046353;28;20101;-82
2022/09/05 03:20:50;;;;;;;7.22;4.72;;;;;;;17.95;65.98;96063.28;5045973;28;20020;-83
2022/09/05 03:23:36;;;;;;;5.65;4.65;;;;;;;17.91;65.78;96071.03;5046808;28;20033;-85
2022/09/05 03:26:02;;;;;;;4.75;4.20;;;;;;;17.82;65.78;96075.81;5046844;28;20033;-83
2022/09/05 03:28:46;;;;;;;5.15;4.35;;;;;;;17.81;66.45;96071.44;5046123;28;20029;-83
2022/09/05 03:31:32;;;;;;;5.05;4.18;;;;;;;17.92;66.68;96073.53;5046084;28;20408;-83
2022/09/05 03:33:57;;;;;;;5.00;4.25;;;;;;;17.94;66.58;96069.78;5043767;28;20032;-82
2022/09/05 03:36:41;;;;;;;6.25;4.22;;;;;;;17.99;66.67;96080.84;5046434;28;20021;-83
2022/09/05 03:39:09;;;;;;;6.07;3.90;;;;;;;17.97;66.22;96082.94;5045820;28;20035;-83
2022/09/05 03:41:39;;;;;;;5.93;4.15;;;;;;;18.02;66.44;96086.69;5045814;28;20037;-83
2022/09/05 03:44:13;;;;;;;5.18;3.85;;;;;;;18.07;66.91;96077.09;5044178;28;20017;-83
2022/09/05 03:46:54;;;;;;;7.05;4.40;;;;;;;18.15;66.18;96083.16;5045928;28;20060;-82
2022/09/05 03:49:34;;;;;;;5.15;3.88;;;;;;;18.17;65.61;96091.09;5045816;28;20037;-83
2022/09/05 03:52:11;;;;;;;5.72;4.07;;;;;;;18.18;65.59;96091.94;5044939;28;20036;-85
2022/09/05 03:55:08;;;;;;;6.85;4.25;;;;;;;18.23;65.73;96094.88;5045503;28;20113;-83
2022/09/05 03:57:59;;;;;;;6.47;4.30;;;;;;;18.22;65.73;96102.16;5044844;28;20407;-84
2022/09/05 04:00:27;;;;;;;5.47;4.03;;;;;;;18.21;65.25;96105.09;5026418;28;20025;-83
2022/09/05 04:03:17;;;;;;;7.68;4.20;;;;;;;18.21;66.03;96107.81;5027953;28;20061;-84
2022/09/05 04:06:09;;;;;;;7.13;5.38;;;;;;;18.20;65.86;96112.38;5044267;28;20396;-84
2022/09/05 04:08:52;;;;;;;6.35;5.05;;;;;;;18.17;66.58;96115.53;5044696;28;20037;-84
2022/09/05 04:11:23;;;;;;;7.13;4.57;;;;;;;18.25;66.06;96114.50;5028594;28;20041;-83
2022/09/05 04:13:54;;;;;;;5.63;4.30;;;;;;;18.22;66.07;96120.31;5045088;28;20103;-83
2022/09/05 04:16:23;;;;;;;6.40;5.40;;;;;;;18.30;65.37;96122.03;5043703;28;20025;-83
2022/09/05 04:19:11;;;;;;;5.85;4.90;;;;;;;18.33;65.22;96122.41;5027509;28;20388;-83
2022/09/05 04:21:45;;;;;;;6.22;4.88;;;;;;;18.28;64.92;96122.22;5027023;28;20506;-83
2022/09/05 04:24:29;;;;;;;6.50;5.10;;;;;;;18.24;65.21;96126.38;5028606;28;20040;-83
2022/09/05 04:27:13;;;;;;;6.53;5.10;;;;;;;18.24;65.13;96134.53;5044593;28;20055;-83
2022/09/05 04:29:53;;;;;;;8.43;5.13;;;;;;;18.18;65.05;96136.22;5044732;28;20052;-82
2022/09/05 04:33:02;;;;;;;7.22;5.70;;;;;;;18.23;64.67;96143.72;5043715;28;20036;-82
2022/09/05 04:35:33;;;;;;;7.53;5.65;;;;;;;18.21;64.56;96146.66;5028763;28;20037;-83
2022/09/05 04:38:12;;;;;;;6.40;5.50;;;;;;;18.24;64.63;96140.81;5043776;28;20074;-84
2022/09/05 04:40:41;;;;;;;6.85;5.57;;;;;;;18.31;64.03;96153.53;5043646;28;20105;-84
2022/09/05 04:43:09;;;;;;;7.03;5.97;;;;;;;18.41;63.18;96151.22;5045532;28;20032;-85
2022/09/05 04:45:59;;;;;;;6.95;5.03;;;;;;;18.46;63.71;96150.63;5045299;28;20035;-83
2022/09/05 04:48:34;;;;;;;6.88;5.35;;;;;;;18.43;63.21;96145.63;5026933;28;20029;-83
2022/09/05 04:51:01;;;;;;;8.00;5.75;;;;;;;18.38;63.06;96157.09;5027316;28;20028;-84
2022/09/05 04:53:53;;;;;;;6.53;5.20;;;;;;;18.32;63.27;96164.19;5044521;28;20063;-83
2022/09/05 04:56:30;;;;;;;5.67;5.03;;;;;;;18.38;63.54;96160.66;5043346;28;20431;-84
2022/09/05 04:59:15;;;;;;;5.22;4.72;;;;;;;18.43;63.21;96161.91;5044905;28;20307;-84
2022/09/05 05:02:04;;;;;;;19.75;5.53;;;;;;;18.49;62.86;96171.94;5031237;28;20056;-85
2022/09/05 05:04:30;;;;;;;19.15;5.75;;;;;;;18.38;63.72;96167.94;5046860;28;20086;-83
2022/09/05 05:07:18;;;;;;;15.73;7.47;;;;;;;18.46;64.09;96172.34;5031173;28;20017;-83
2022/09/05 05:09:49;;;;;;;16.25;6.63;;;;;;;18.52;63.59;96171.53;5046220;28;20152;-84
2022/09/05 05:12:20;;;;;;;12.20;6.43;;;;;;;18.45;63.66;96178.81;5031789;28;20032;-84
2022/09/05 05:15:03;;;;;;;15.27;6.32;;;;;;;18.72;63.74;96179.63;5030024;28;20037;-84
2022/09/05 05:17:43;;;;;;;11.20;4.93;;;;;;;18.83;63.53;96180.06;5030519;28;20037;-84
2022/09/05 05:20:30;;;;;;;10.63;5.53;;;;;;;18.71;64.05;96177.97;5032047;28;20021;-84
2022/09/05 05:23:16;;;;;;;5.97;4.10;;;;;;;18.94;63.29;96184.00;5030189;28;20036;-84
2022/09/05 05:25:52;;;;;;;14.93;5.93;;;;;;;19.03;62.76;96178.13;5046964;28;20481;-84
2022/09/05 05:28:53;;;;;;;15.23;4.63;;;;;;;19.15;63.23;96193.84;5046800;28;20082;-84
2022/09/05 05:31:21;;;;;;;11.13;4.13;;;;;;;19.36;62.42;96192.69;5046846;28;20397;-84
2022/09/05 05:33:50;;;;;;;9.82;4.55;;;;;;;19.42;62.21;96195.63;5030851;28;20082;-84
2022/09/05 05:36:18;;;;;;;7.60;3.97;;;;;;;19.63;61.23;96199.94;5029984;28;20025;-84
2022/09/05 05:38:57;;;;;;;7.40;3.50;;;;;;;19.69;60.45;96198.22;5030473;28;20027;-84
2022/09/05 05:41:24;;;;;;;4.82;3.00;;;;;;;19.39;61.36;96197.72;5048232;28;20028;-84
2022/09/05 05:43:50;;;;;;;6.70;3.10;;;;;;;19.32;61.08;96198.78;5030292;28;20044;-83
2022/09/05 05:46:27;;;;;;;5.47;3.42;;;;;;;19.34;60.24;96202.97;5047575;28;20025;-84
2022/09/05 05:48:52;;;;;;;9.18;4.40;;;;;;;19.25;61.36;96202.38;5029652;28;20061;-84
2022/09/05 05:51:36;;;;;;;7.85;5.15;;;;;;;19.38;61.21;96200.66;5030383;28;20118;-84
2022/09/05 05:54:19;;;;;;;6.47;3.70;;;;;;;19.62;59.05;96201.81;5047550;28;20094;-84
2022/09/05 05:56:50;;;;;;;10.75;3.67;;;;;;;19.78;58.26;96202.38;5030411;28;20032;-83
2022/09/05 05:59:47;;;;;;;20.83;4.10;;;;;;;19.96;57.74;96211.69;5030922;28;20061;-84
2022/09/05 06:02:22;;;;;;;17.98;4.53;;;;;;;20.07;56.66;96207.50;5045809;28;20049;-84
2022/09/05 06:04:59;;;;;;;8.38;3.40;;;;;;;20.05;57.08;96205.00;5045941;28;20025;-83
2022/09/05 06:07:51;;;;;;;10.57;3.70;;;;;;;20.18;56.53;96211.41;5047513;28;20059;-84
2022/09/05 06:10:28;;;;;;;10.77;3.00;;;;;;;20.30;56.01;96201.47;5028740;28;20123;-84
2022/09/05 06:13:33;;;;;;;9.57;3.58;;;;;;;20.47;56.43;96209.13;5047577;28;20098;-84
2022/09/05 06:16:21;;;;;;;6.65;3.13;;;;;;;20.48;54.72;96206.19;5047617;28;20021;-83
2022/09/05 06:19:10;;;;;;;4.57;2.70;;;;;;;20.51;54.81;96207.59;5046306;28;20063;-83
2022/09/05 06:22:06;;;;;;;4.43;2.83;;;;;;;20.49;54.86;96216.00;5048112;28;20032;-83
2022/09/05 06:24:37;;;;;;;5.43;2.63;;;;;;;20.44;54.44;96212.28;5047256;28;20033;-84
2022/09/05 06:27:24;;;;;;;4.10;2.88;;;;;;;20.54;53.78;96218.06;5046838;28;20253;-83
2022/09/05 06:30:04;;;;;;;5.28;3.17;;;;;;;20.56;53.75;96218.69;5047732;28;20051;-83
2022/09/05 06:33:01;;;;;;;10.25;2.83;;;;;;;20.60;54.33;96219.09;5030337;28;20094;-83
2022/09/05 06:35:59;;;;;;;8.18;2.72;;;;;;;20.60;54.19;96217.16;5045876;28;20337;-84
2022/09/05 06:39:11;;;;;;;7.50;3.30;;;;;;;20.56;54.05;96224.13;5047580;28;20411;-83
2022/09/05 06:42:04;;;;;;;11.27;3.72;;;;;;;20.49;53.21;96226.91;5027629;28;20036;-83
2022/09/05 06:44:44;;;;;;;9.73;3.33;;;;;;;20.48;53.14;96222.53;5044405;28;20055;-83
2022/09/05 06:47:11;;;;;;;14.23;3.30;;;;;;;20.57;51.70;96227.69;5047178;28;20077;-84
2022/09/05 06:50:04;;;;;;;6.75;3.05;;;;;;;20.36;53.00;96227.81;5028499;28;20476;-84
2022/09/05 06:52:58;;;;;;;9.23;3.33;;;;;;;20.31;52.52;96233.13;5045910;28;20082;-84
2022/09/05 06:55:42;;;;;;;6.32;3.00;;;;;;;20.08;52.86;96229.06;5032047;28;20025;-84
2022/09/05 06:58:44;;;;;;;7.40;2.83;;;;;;;19.94;52.74;96227.44;5046011;28;20428;-83
2022/09/05 07:01:10;;;;;;;5.13;3.10;;;;;;;20.03;51.41;96223.44;5046417;28;20032;-83
2022/09/05 07:03:48;;;;;;;6.75;2.80;;;;;;;20.15;52.38;96222.75;5028697;28;20087;-83
2022/09/05 07:06:41;;;;;;;8.13;3.00;;;;;;;20.15;51.28;96226.31;5044434;28;20423;-84
2022/09/05 07:09:28;;;;;;;4.53;2.53;;;;;;;20.24;50.84;96224.16;5046142;28;20037;-84
2022/09/05 07:12:21;;;;;;;3.63;2.88;;;;;;;20.38;50.78;96231.19;5044871;28;20114;-83
2022/09/05 07:15:00;;;;;;;3.90;2.20;;;;;;;20.19;50.28;96232.13;5044630;28;20063;-84
2022/09/05 07:17:33;;;;;;;3.88;2.60;;;;;;;20.30;50.50;96231.44;5029375;28;20386;-84
2022/09/05 07:19:59;;;;;;;7.45;3.03;;;;;;;20.42;51.04;96222.56;5027421;28;20182;-84
2022/09/05 07:22:27;;;;;;;4.65;2.40;;;;;;;20.54;49.99;96215.34;5028986;28;20376;-83
2022/09/05 07:24:53;;;;;;;3.65;2.70;;;;;;;20.56;50.23;96215.97;5045775;28;20022;-84
2022/09/05 07:27:33;;;;;;;6.32;3.08;;;;;;;20.61;49.81;96221.59;5027727;28;20021;-83
2022/09/05 07:29:59;;;;;;;6.63;2.47;;;;;;;20.75;50.01;96216.00;5046241;28;20039;-83
2022/09/05 07:32:24;;;;;;;5.40;2.40;;;;;;;20.88;49.43;96221.34;5044906;28;20033;-84
2022/09/05 07:34:50;;;;;;;3.50;2.45;;;;;;;21.03;48.95;96224.81;5028707;28;20040;-83
2022/09/05 07:37:22;;;;;;;14.70;3.20;;;;;;;21.10;47.79;96223.69;5044996;28;20593;-83
2022/09/05 07:39:57;;;;;;;6.90;3.10;;;;;;;21.07;47.88;96218.69;5011943;28;20021;-84
2022/09/05 07:42:36;;;;;;;4.82;2.78;;;;;;;21.02;46.87;96224.00;5028493;28;20431;-84
2022/09/05 07:45:10;;;;;;;3.17;2.42;;;;;;;21.04;47.60;96223.78;5028181;28;20036;-84
2022/09/05 07:47:39;;;;;;;6.30;2.72;;;;;;;21.17;47.99;96228.22;5028959;28;20035;-85
2022/09/05 07:50:06;;;;;;;4.90;2.85;;;;;;;21.20;47.56;96219.63;5027079;28;20110;-84
2022/09/05 07:52:32;;;;;;;3.55;2.50;;;;;;;21.16;47.79;96218.41;5028090;28;20044;-85
2022/09/05 07:55:00;;;;;;;5.68;3.00;;;;;;;21.24;48.87;96227.13;5027437;28;20028;-85
2022/09/05 07:57:30;;;;;;;3.35;2.53;;;;;;;21.31;49.37;96227.03;5027760;28;20424;-84
2022/09/05 08:00:02;;;;;;;5.40;2.60;;;;;;;21.06;49.40;96225.22;5043980;28;20136;-83
2022/09/05 08:02:28;;;;;;;5.07;3.00;;;;;;;21.12;47.94;96232.47;5027749;28;20033;-83
2022/09/05 08:04:53;;;;;;;5.63;2.80;;;;;;;21.23;47.72;96232.81;5028015;28;20036;-84
2022/09/05 08:07:22;;;;;;;5.63;2.50;;;;;;;21.20;47.25;96227.81;5026044;28;20041;-84
2022/09/05 08:09:50;;;;;;;3.70;2.45;;;;;;;21.11;48.35;96232.72;5028154;28;20049;-83
2022/09/05 08:12:19;;;;;;;5.45;2.83;;;;;;;21.18;49.38;96229.94;5026552;28;20040;-85
2022/09/05 08:14:52;;;;;;;7.93;4.15;;;;;;;21.13;48.47;96225.16;5043893;28;20510;-83
2022/09/05 08:17:19;;;;;;;4.20;2.90;;;;;;;21.57;48.63;96222.34;5043297;28;20496;-84
2022/09/05 08:19:55;;;;;;;3.95;2.60;;;;;;;21.68;48.57;96228.94;5043151;28;20522;-84
2022/09/05 08:22:25;;;;;;;5.72;2.42;;;;;;;21.95;48.53;96227.81;5044086;28;20373;-84
2022/09/05 08:25:01;;;;;;;4.95;2.55;;;;;;;21.85;45.15;96217.44;5042717;28;20558;-83
2022/09/05 08:28:00;;;;;;;4.25;2.38;;;;;;;21.83;47.71;96225.84;5043893;28;20459;-84
2022/09/05 08:30:26;;;;;;;5.72;2.78;;;;;;;21.97;47.08;96222.97;5026706;28;20029;-84
2022/09/05 08:32:59;;;;;;;4.85;2.60;;;;;;;22.10;45.41;96225.50;5026573;28;20040;-85
2022/09/05 08:35:32;;;;;;;7.43;2.40;;;;;;;22.01;46.53;96232.34;5027033;28;20029;-84
2022/09/05 08:37:57;;;;;;;;;;;;;;;22.03;45.41;96229.38;5043274;28;20106;-85
2022/09/05 08:40:54;;;;;;;3.00;2.20;;;;;;;21.71;45.35;96224.94;5043945;28;20386;-84
2022/09/05 08:43:32;;;;;;;3.15;2.35;;;;;;;21.58;46.25;96229.50;5043486;28;20064;-83
2022/09/05 08:46:27;;;;;;;4.70;2.78;;;;;;;21.74;45.53;96222.59;5026854;28;20029;-84
2022/09/05 08:49:24;;;;;;;3.90;2.60;;;;;;;21.77;45.69;96226.78;5028654;28;20021;-84
2022/09/05 08:51:55;;;;;;;3.47;2.42;;;;;;;21.72;45.98;96224.69;5043100;28;20036;-83
2022/09/05 08:54:38;;;;;;;5.47;2.80;;;;;;;21.86;45.36;96219.09;5027044;28;20029;-84
2022/09/05 08:57:39;;;;;;;5.70;2.70;;;;;;;22.04;45.99;96223.69;5044326;28;20017;-85
2022/09/05 09:00:07;;;;;;;4.72;2.75;;;;;;;22.01;44.29;96224.16;5044599;28;20025;-84
2022/09/05 09:02:50;;;;;;;3.00;2.20;;;;;;;22.06;45.08;96224.31;5026388;28;20062;-85
2022/09/05 09:05:39;;;;;;;5.60;2.45;;;;;;;22.18;44.66;96221.59;5044930;28;20017;-83
2022/09/05 09:08:12;;;;;;;4.97;2.90;;;;;;;21.85;46.43;96218.28;5042678;28;20033;-84
2022/09/05 09:11:00;;;;;;;6.00;2.47;;;;;;;22.27;45.68;96219.38;5043884;28;20053;-84
2022/09/05 09:13:53;;;;;;;3.88;2.83;;;;;;;22.01;45.40;96210.50;5043186;28;20105;-83
2022/09/05 09:16:36;;;;;;;4.75;2.67;;;;;;;22.29;45.52;96220.00;5012618;28;20033;-85
2022/09/05 09:19:13;;;;;;;4.28;2.63;;;;;;;22.38;44.73;96209.56;5044580;28;20033;-85
2022/09/05 09:22:05;;;;;;;4.30;2.63;;;;;;;22.35;43.94;96215.47;5042566;28;20465;-86
2022/09/05 09:25:12;;;;;;;4.45;2.67;;;;;;;22.40;45.29;96212.03;5042765;28;20065;-83
2022/09/05 09:27:45;;;;;;;4.05;2.35;;;;;;;22.32;44.56;96216.78;5045912;28;20452;-83
2022/09/05 09:30:10;;;;;;;4.63;2.72;;;;;;;22.50;44.77;96211.47;5040951;28;20040;-85
2022/09/05 09:32:45;;;;;;;5.43;2.90;;;;;;;22.48;43.65;96209.81;5043856;28;20419;-84
2022/09/05 09:35:19;;;;;;;6.43;2.80;;;;;;;22.30;43.83;96218.91;5027140;28;20111;-84
2022/09/05 09:38:06;;;;;;;3.92;2.80;;;;;;;22.02;44.08;96214.88;5042622;28;20061;-84
2022/09/05 09:40:43;;;;;;;6.22;4.03;;;;;;;21.92;45.10;96209.16;5044031;28;20519;-84
2022/09/05 09:43:26;;;;;;;6.22;3.15;;;;;;;21.85;45.45;96207.34;5042688;28;20021;-83
2022/09/05 09:46:09;;;;;;;4.43;2.58;;;;;;;22.02;46.83;96201.22;5045054;28;20394;-84
2022/09/05 09:48:55;;;;;;;5.50;2.85;;;;;;;22.29;46.18;96195.41;5048359;28;20122;-82
2022/09/05 09:51:45;;;;;;;7.82;2.90;;;;;;;22.05;45.96;96189.88;5045420;28;20037;-85
2022/09/05 09:54:19;;;;;;;3.63;2.60;;;;;;;22.29;47.18;96189.09;5047167;28;20025;-84
2022/09/05 09:57:03;;;;;;;3.75;2.63;;;;;;;22.48;44.32;96181.66;5047117;28;20446;-84
2022/09/05 09:59:53;;;;;;;3.88;3.35;;;;;;;22.74;45.70;96176.84;5047397;28;20082;-84
2022/09/05 10:02:35;;;;;;;4.88;2.80;;;;;;;22.89;42.88;96181.00;5048153;28;20112;-83
2022/09/05 10:05:09;;;;;;;5.15;2.53;;;;;;;22.83;44.10;96169.94;5045438;28;20120;-83
2022/09/05 10:08:12;;;;;;;5.20;2.70;;;;;;;22.84;42.71;96168.06;5047500;28;20102;-82
2022/09/05 10:10:58;;;;;;;6.07;2.90;;;;;;;22.80;43.95;96167.69;5047630;28;20121;-83
2022/09/05 10:13:52;;;;;;;3.28;2.60;;;;;;;22.52;44.62;96160.16;5046715;28;20466;-83
2022/09/05 10:16:36;;;;;;;5.13;2.72;;;;;;;22.66;45.83;96155.31;5046384;28;20124;-82
2022/09/05 10:19:21;;;;;;;7.05;3.30;;;;;;;22.81;46.22;96152.94;5046879;28;20029;-83
2022/09/05 10:21:59;;;;;;;4.70;2.42;;;;;;;23.07;41.57;96144.50;5029210;28;20352;-82
2022/09/05 10:25:12;;;;;;;3.97;2.70;;;;;;;23.08;43.02;96146.16;5048017;28;20029;-83
2022/09/05 10:27:43;;;;;;;4.07;2.80;;;;;;;23.27;42.53;96143.28;5030207;28;20389;-84
2022/09/05 10:30:20;;;;;;;3.58;2.38;;;;;;;23.22;41.53;96141.25;5028533;28;20033;-83
2022/09/05 10:33:03;;;;;;;3.30;1.98;;;;;;;23.26;43.47;96138.88;5029864;28;20029;-84
2022/09/05 10:35:42;;;;;;;4.90;2.33;;;;;;;23.23;42.16;96142.91;5046392;28;20040;-84
2022/09/05 10:38:10;;;;;;;4.47;2.60;;;;;;;23.21;41.79;96147.81;5045182;28;20033;-83
2022/09/05 10:40:36;;;;;;;4.57;2.90;;;;;;;23.14;42.99;96134.25;5045562;28;20017;-83
2022/09/05 10:43:12;;;;;;;3.70;2.28;;;;;;;23.12;43.44;96136.38;5011531;28;20120;-84
2022/09/05 10:45:56;;;;;;;3.75;2.53;;;;;;;23.19;42.48;96145.31;5045972;28;20025;-83
2022/09/05 10:48:28;;;;;;;6.18;2.40;;;;;;;23.18;43.00;96145.56;5045438;28;20404;-83
2022/09/05 10:51:15;;;;;;;15.25;3.00;;;;;;;23.12;42.09;96144.59;5029216;28;20064;-84
2022/09/05 10:54:03;;;;;;;6.68;2.83;;;;;;;22.90;42.42;96139.75;5028871;28;20063;-85
2022/09/05 10:56:30;;;;;;;4.00;2.63;;;;;;;22.98;42.70;96138.56;5045164;28;20067;-83
2022/09/05 10:59:03;;;;;;;7.60;2.72;;;;;;;23.09;42.17;96140.44;5029580;28;20048;-83
2022/09/05 11:01:32;;;;;;;;;;;;;;;23.03;41.76;96133.22;5029502;28;20021;-83
2022/09/05 11:04:19;;;;;;;3.50;2.00;;;;;;;22.93;41.54;96132.97;5046178;28;19912;-81
2022/09/05 11:06:44;;;;;;;6.82;2.65;;;;;;;22.82;42.89;96132.75;5044842;28;20502;-84
2022/09/05 11:09:13;;;;;;;6.38;2.60;;;;;;;22.99;42.36;96128.47;5043712;28;20028;-82
2022/09/05 11:11:44;;;;;;;6.43;2.30;;;;;;;23.08;42.55;96127.84;5005978;28;20042;-83
2022/09/05 11:14:48;;;;;;;3.20;2.05;;;;;;;22.93;44.45;96120.13;5020583;28;20473;-83
2022/09/05 11:17:32;;;;;;;3.63;2.30;;;;;;;23.28;41.49;96107.44;5010623;28;20046;-84
2022/09/05 11:20:14;;;;;;;4.57;2.25;;;;;;;23.34;41.66;96113.88;5006520;28;20030;-83
2022/09/05 11:22:40;;;;;;;12.90;3.92;;;;;;;23.53;42.85;96111.81;5004063;28;20022;-83
2022/09/05 11:25:14;;;;;;;8.02;2.67;;;;;;;23.39;40.52;96118.66;4989213;28;20049;-85
2022/09/05 11:27:42;;;;;;;13.27;2.70;;;;;;;23.18;41.23;96120.94;4988619;28;20436;-83
2022/09/05 11:30:17;;;;;;;8.60;2.80;;;;;;;23.27;40.76;96111.28;4988464;28;20583;-82
2022/09/05 11:32:48;;;;;;;6.30;2.33;;;;;;;23.34;41.49;96111.94;5006358;28;20038;-83
2022/09/05 11:35:24;;;;;;;5.28;2.28;;;;;;;23.39;41.19;96104.97;5005543;28;20084;-84
2022/09/05 11:38:02;;;;;;;5.93;2.63;;;;;;;23.52;42.10;96103.84;5005552;28;20026;-83
2022/09/05 11:40:52;;;;;;;6.20;2.20;;;;;;;23.58;41.58;96109.19;5005246;28;20267;-84
2022/09/05 11:43:47;;;;;;;3.65;1.73;;;;;;;23.89;40.53;96113.59;5005597;28;20032;-83
2022/09/05 11:46:32;;;;;;;3.15;2.22;;;;;;;24.01;40.92;96110.75;5006604;28;20037;-83
2022/09/05 11:49:16;;;;;;;2.75;1.77;;;;;;;23.98;38.70;96108.53;5003968;28;20042;-84
2022/09/05 11:52:20;;;;;;;3.63;1.85;;;;;;;23.99;39.26;96105.53;5005519;28;20119;-83
2022/09/05 11:55:07;;;;;;;7.72;2.25;;;;;;;24.05;38.71;96101.81;5006803;28;20429;-84
2022/09/05 11:57:46;;;;;;;8.23;2.65;;;;;;;24.11;40.23;96107.38;5004746;28;20121;-83
2022/09/05 12:00:15;;;;;;;2.88;1.80;;;;;;;24.18;38.11;96103.44;5004583;28;20029;-83
2022/09/05 12:03:02;;;;;;;3.10;2.05;;;;;;;23.92;38.74;96105.69;5005348;28;20068;-83
2022/09/05 12:06:07;;;;;;;3.25;1.88;;;;;;;23.88;37.70;96103.69;5004899;28;20029;-82
2022/09/05 12:08:54;;;;;;;8.82;2.38;;;;;;;23.71;38.48;96094.34;5022389;28;20733;-83
2022/09/05 12:11:41;;;;;;;4.18;2.05;;;;;;;23.82;38.88;96087.19;5038361;28;20502;-83
2022/09/05 12:14:34;;;;;;;7.70;2.40;;;;;;;23.85;40.61;96085.84;5043068;28;20231;-83
2022/09/05 12:17:24;;;;;;;8.98;2.55;;;;;;;23.97;38.90;96080.31;5044640;28;20025;-82
2022/09/05 12:20:11;;;;;;;6.07;2.33;;;;;;;23.92;38.90;96097.47;5043485;28;20044;-83
2022/09/05 12:22:37;;;;;;;3.63;2.08;;;;;;;24.12;38.67;96092.63;5044069;28;20033;-83
2022/09/05 12:25:26;;;;;;;5.05;2.08;;;;;;;24.37;38.71;96084.00;5044033;28;20546;-84
2022/09/05 12:28:06;;;;;;;4.75;2.35;;;;;;;24.48;37.93;96082.25;5042739;28;20032;-83
2022/09/05 12:30:36;;;;;;;3.65;2.10;;;;;;;24.48;37.44;96087.75;5043481;28;20025;-82
2022/09/05 12:33:10;;;;;;;3.25;2.10;;;;;;;24.56;36.78;96092.81;5011213;28;20036;-83
2022/09/05 12:35:37;;;;;;;6.30;2.05;;;;;;;24.51;36.90;96089.97;5043640;28;20066;-82